sensor_id;sensor_type;location;lat;lon;timestamp;pressure;altitude;pressure_sealevel;temperature;humidity
70015;BME280;57358;51.094;6.760;2023-02-13T00:00:33;103292.66;;;7.71;100.00
70015;BME280;57358;51.094;6.760;2023-02-13T00:03:00;103288.28;;;7.73;100.00
70015;BME280;57358;51.094;6.760;2023-02-13T00:05:26;103196.72;;;7.17;100.00
70015;BME280;57358;51.094;6.760;2023-02-13T00:07:53;103097.41;;;6.62;100.00
70015;BME280;57358;51.094;6.760;2023-02-13T00:10:19;103259.50;;;7.47;100.00
70015;BME280;57358;51.094;6.760;2023-02-13T00:12:46;103260.38;;;7.59;100.00
70015;BME280;57358;51.094;6.760;2023-02-13T00:15:12;103233.38;;;7.45;100.00
70015;BME280;57358;51.094;6.760;2023-02-13T00:17:39;103215.06;;;7.34;100.00
70015;BME280;57358;51.094;6.760;2023-02-13T00:20:05;103268.28;;;7.72;100.00
70015;BME280;57358;51.094;6.760;2023-02-13T00:22:35;103263.91;;;7.66;100.00
70015;BME280;57358;51.094;6.760;2023-02-13T00:25:03;103254.31;;;7.61;100.00
70015;BME280;57358;51.094;6.760;2023-02-13T00:27:30;103269.97;;;7.65;100.00
70015;BME280;57358;51.094;6.760;2023-02-13T00:29:57;103269.13;;;7.60;100.00
70015;BME280;57358;51.094;6.760;2023-02-13T00:32:23;103268.25;;;7.58;100.00
70015;BME280;57358;51.094;6.760;2023-02-13T00:34:50;103208.94;;;7.25;100.00
70015;BME280;57358;51.094;6.760;2023-02-13T00:37:16;103160.16;;;7.01;100.00
70015;BME280;57358;51.094;6.760;2023-02-13T00:39:42;103188.03;;;7.12;100.00
70015;BME280;57358;51.094;6.760;2023-02-13T00:42:09;103222.03;;;7.42;100.00
70015;BME280;57358;51.094;6.760;2023-02-13T00:44:35;103195.00;;;7.27;100.00
70015;BME280;57358;51.094;6.760;2023-02-13T00:47:02;103247.34;;;7.52;100.00
70015;BME280;57358;51.094;6.760;2023-02-13T00:49:28;103181.06;;;7.17;100.00
70015;BME280;57358;51.094;6.760;2023-02-13T00:51:54;103248.19;;;7.58;100.00
70015;BME280;57358;51.094;6.760;2023-02-13T00:54:21;103209.81;;;7.31;100.00
70015;BME280;57358;51.094;6.760;2023-02-13T00:56:48;103190.66;;;7.18;100.00
70015;BME280;57358;51.094;6.760;2023-02-13T00:59:14;103251.66;;;7.47;100.00
70015;BME280;57358;51.094;6.760;2023-02-13T01:01:42;103249.06;;;7.57;100.00
70015;BME280;57358;51.094;6.760;2023-02-13T01:04:08;103223.78;;;7.43;100.00
70015;BME280;57358;51.094;6.760;2023-02-13T01:06:34;103252.56;;;7.63;100.00
70015;BME280;57358;51.094;6.760;2023-02-13T01:09:02;103109.59;;;6.75;100.00
70015;BME280;57358;51.094;6.760;2023-02-13T01:11:29;103247.31;;;7.59;100.00
70015;BME280;57358;51.094;6.760;2023-02-13T01:13:56;103195.03;;;7.18;100.00
70015;BME280;57358;51.094;6.760;2023-02-13T01:16:22;103183.66;;;7.11;100.00
70015;BME280;57358;51.094;6.760;2023-02-13T01:18:48;103222.03;;;7.32;100.00
70015;BME280;57358;51.094;6.760;2023-02-13T01:21:17;103154.91;;;6.94;100.00
70015;BME280;57358;51.094;6.760;2023-02-13T01:23:45;103213.31;;;7.29;100.00
70015;BME280;57358;51.094;6.760;2023-02-13T01:26:22;103242.09;;;7.38;100.00
70015;BME280;57358;51.094;6.760;2023-02-13T01:28:53;103219.44;;;7.34;100.00
70015;BME280;57358;51.094;6.760;2023-02-13T01:31:20;103127.00;;;6.73;100.00
70015;BME280;57358;51.094;6.760;2023-02-13T01:33:47;103191.53;;;7.10;100.00
70015;BME280;57358;51.094;6.760;2023-02-13T01:36:14;103239.47;;;7.41;100.00
70015;BME280;57358;51.094;6.760;2023-02-13T01:38:40;103086.06;;;6.51;100.00
70015;BME280;57358;51.094;6.760;2023-02-13T01:41:08;103239.47;;;7.47;100.00
70015;BME280;57358;51.094;6.760;2023-02-13T01:46:20;103054.75;;;6.35;100.00
70015;BME280;57358;51.094;6.760;2023-02-13T01:48:48;103240.34;;;7.45;100.00
70015;BME280;57358;51.094;6.760;2023-02-13T01:51:19;103234.25;;;7.44;100.00
70015;BME280;57358;51.094;6.760;2023-02-13T01:53:52;103163.63;;;7.03;100.00
70015;BME280;57358;51.094;6.760;2023-02-13T01:56:25;103217.66;;;7.27;100.00
70015;BME280;57358;51.094;6.760;2023-02-13T01:58:57;103187.16;;;7.10;100.00
70015;BME280;57358;51.094;6.760;2023-02-13T02:01:26;103168.84;;;6.95;100.00
70015;BME280;57358;51.094;6.760;2023-02-13T02:04:01;103202.84;;;7.21;100.00
70015;BME280;57358;51.094;6.760;2023-02-13T02:06:33;103232.50;;;7.38;100.00
70015;BME280;57358;51.094;6.760;2023-02-13T02:09:08;103182.81;;;7.06;100.00
70015;BME280;57358;51.094;6.760;2023-02-13T02:11:52;103228.13;;;7.33;100.00
70015;BME280;57358;51.094;6.760;2023-02-13T02:14:20;103238.59;;;7.30;100.00
70015;BME280;57358;51.094;6.760;2023-02-13T02:16:47;103236.84;;;7.39;100.00
70015;BME280;57358;51.094;6.760;2023-02-13T02:19:25;103200.22;;;7.16;100.00
70015;BME280;57358;51.094;6.760;2023-02-13T02:22:06;103240.31;;;7.35;100.00
70015;BME280;57358;51.094;6.760;2023-02-13T02:27:28;103237.69;;;7.31;100.00
70015;BME280;57358;51.094;6.760;2023-02-13T02:33:11;103240.31;;;7.31;100.00
70015;BME280;57358;51.094;6.760;2023-02-13T02:36:04;103175.78;;;6.87;100.00
70015;BME280;57358;51.094;6.760;2023-02-13T02:41:17;103134.81;;;6.69;100.00
70015;BME280;57358;51.094;6.760;2023-02-13T02:50:11;103232.44;;;7.22;100.00
70015;BME280;57358;51.094;6.760;2023-02-13T02:58:21;103229.81;;;7.22;100.00
70015;BME280;57358;51.094;6.760;2023-02-13T03:01:11;103175.78;;;6.84;100.00
70015;BME280;57358;51.094;6.760;2023-02-13T03:03:59;103172.28;;;6.80;100.00
70015;BME280;57358;51.094;6.760;2023-02-13T03:06:55;103227.19;;;7.15;100.00
70015;BME280;57358;51.094;6.760;2023-02-13T03:09:28;103013.69;;;5.94;100.00
70015;BME280;57358;51.094;6.760;2023-02-13T03:12:18;103240.28;;;7.18;100.00
70015;BME280;57358;51.094;6.760;2023-02-13T03:15:04;103233.31;;;7.19;100.00
70015;BME280;57358;51.094;6.760;2023-02-13T03:17:33;103167.06;;;6.78;100.00
70015;BME280;57358;51.094;6.760;2023-02-13T03:26:31;103233.34;;;7.22;100.00
70015;BME280;57358;51.094;6.760;2023-02-13T03:32:23;103162.69;;;6.77;100.00
70015;BME280;57358;51.094;6.760;2023-02-13T03:38:46;103173.97;;;6.73;100.00
70015;BME280;57358;51.094;6.760;2023-02-13T03:41:27;103154.81;;;6.62;100.00
70015;BME280;57358;51.094;6.760;2023-02-13T03:46:30;103222.81;;;6.99;100.00
70015;BME280;57358;51.094;6.760;2023-02-13T03:49:00;103188.81;;;6.76;100.00
70015;BME280;57358;51.094;6.760;2023-02-13T03:52:06;103068.50;;;6.04;100.00
70015;BME280;57358;51.094;6.760;2023-02-13T03:54:47;103227.16;;;6.98;100.00
70015;BME280;57358;51.094;6.760;2023-02-13T03:57:37;103167.84;;;6.56;100.00
70015;BME280;57358;51.094;6.760;2023-02-13T04:00:27;103175.69;;;6.57;100.00
70015;BME280;57358;51.094;6.760;2023-02-13T04:02:59;103252.34;;;6.89;100.00
70015;BME280;57358;51.094;6.760;2023-02-13T04:05:37;103229.69;;;6.83;100.00
70015;BME280;57358;51.094;6.760;2023-02-13T04:08:04;103185.28;;;6.62;100.00
70015;BME280;57358;51.094;6.760;2023-02-13T04:10:33;103187.84;;;6.54;100.00
70015;BME280;57358;51.094;6.760;2023-02-13T04:13:21;103227.13;;;6.86;100.00
70015;BME280;57358;51.094;6.760;2023-02-13T04:15:55;103223.63;;;6.83;100.00
70015;BME280;57358;51.094;6.760;2023-02-13T04:18:28;103152.94;;;6.32;100.00
70015;BME280;57358;51.094;6.760;2023-02-13T04:20:55;103227.09;;;6.83;100.00
70015;BME280;57358;51.094;6.760;2023-02-13T04:23:22;103109.38;;;6.08;100.00
70015;BME280;57358;51.094;6.760;2023-02-13T04:25:50;103187.81;;;6.48;100.00
70015;BME280;57358;51.094;6.760;2023-02-13T04:28:17;103233.16;;;6.77;100.00
70015;BME280;57358;51.094;6.760;2023-02-13T04:30:44;103233.13;;;6.73;100.00
70015;BME280;57358;51.094;6.760;2023-02-13T04:33:10;103165.97;;;6.33;100.00
70015;BME280;57358;51.094;6.760;2023-02-13T04:35:37;103158.06;;;6.13;100.00
70015;BME280;57358;51.094;6.760;2023-02-13T04:38:03;103227.84;;;6.59;100.00
70015;BME280;57358;51.094;6.760;2023-02-13T04:40:30;103233.94;;;6.56;100.00
70015;BME280;57358;51.094;6.760;2023-02-13T04:42:56;103221.69;;;6.45;100.00
70015;BME280;57358;51.094;6.760;2023-02-13T04:45:23;103235.66;;;6.53;100.00
70015;BME280;57358;51.094;6.760;2023-02-13T04:47:51;103159.78;;;6.10;100.00
70015;BME280;57358;51.094;6.760;2023-02-13T04:50:17;103226.06;;;6.50;100.00
70015;BME280;57358;51.094;6.760;2023-02-13T04:52:44;103151.03;;;6.02;100.00
70015;BME280;57358;51.094;6.760;2023-02-13T04:55:11;103237.38;;;6.48;100.00
70015;BME280;57358;51.094;6.760;2023-02-13T04:57:38;103198.88;;;6.10;100.00
70015;BME280;57358;51.094;6.760;2023-02-13T05:00:06;103226.03;;;6.39;100.00
70015;BME280;57358;51.094;6.760;2023-02-13T05:02:32;103206.81;;;6.27;100.00
70015;BME280;57358;51.094;6.760;2023-02-13T05:04:59;103225.94;;;6.30;100.00
70015;BME280;57358;51.094;6.760;2023-02-13T05:07:25;103225.94;;;6.26;100.00
70015;BME280;57358;51.094;6.760;2023-02-13T05:09:52;103041.91;;;5.24;100.00
70015;BME280;57358;51.094;6.760;2023-02-13T05:12:18;103219.88;;;6.30;100.00
70015;BME280;57358;51.094;6.760;2023-02-13T05:14:45;103157.97;;;5.98;100.00
70015;BME280;57358;51.094;6.760;2023-02-13T05:17:11;103224.22;;;6.32;100.00
70015;BME280;57358;51.094;6.760;2023-02-13T05:19:37;103177.16;;;6.08;100.00
70015;BME280;57358;51.094;6.760;2023-02-13T05:22:04;103171.00;;;5.98;100.00
70015;BME280;57358;51.094;6.760;2023-02-13T05:24:49;103196.25;;;6.08;100.00
70015;BME280;57358;51.094;6.760;2023-02-13T05:27:15;103043.53;;;5.12;100.00
70015;BME280;57358;51.094;6.760;2023-02-13T05:29:42;103183.00;;;5.82;100.00
70015;BME280;57358;51.094;6.760;2023-02-13T05:32:08;103217.84;;;5.92;100.00
70015;BME280;57358;51.094;6.760;2023-02-13T05:34:35;103197.75;;;5.80;100.00
70015;BME280;57358;51.094;6.760;2023-02-13T05:37:01;103129.66;;;5.35;100.00
70015;BME280;57358;51.094;6.760;2023-02-13T05:39:27;103219.50;;;5.87;100.00
70015;BME280;57358;51.094;6.760;2023-02-13T05:41:54;103142.69;;;5.38;100.00
70015;BME280;57358;51.094;6.760;2023-02-13T05:44:20;103195.84;;;5.57;100.00
70015;BME280;57358;51.094;6.760;2023-02-13T05:46:47;103170.50;;;5.39;100.00
70015;BME280;57358;51.094;6.760;2023-02-13T05:49:14;103210.59;;;5.58;100.00
70015;BME280;57358;51.094;6.760;2023-02-13T05:51:41;102957.53;;;4.04;100.00
70015;BME280;57358;51.094;6.760;2023-02-13T05:54:08;103131.06;;;5.01;100.00
70015;BME280;57358;51.094;6.760;2023-02-13T05:56:34;103213.94;;;5.45;100.00
70015;BME280;57358;51.094;6.760;2023-02-13T05:59:01;103156.31;;;5.10;100.00
70015;BME280;57358;51.094;6.760;2023-02-13T06:01:27;103205.19;;;5.35;100.00
70015;BME280;57358;51.094;6.760;2023-02-13T06:03:53;103147.41;;;4.88;100.00
70015;BME280;57358;51.094;6.760;2023-02-13T06:06:23;103135.25;;;4.87;100.00
70015;BME280;57358;51.094;6.760;2023-02-13T06:08:50;103211.97;;;5.19;100.00
70015;BME280;57358;51.094;6.760;2023-02-13T06:11:17;103122.97;;;4.75;100.00
70015;BME280;57358;51.094;6.760;2023-02-13T06:13:44;103118.50;;;4.62;100.00
70015;BME280;57358;51.094;6.760;2023-02-13T06:16:10;103204.00;;;5.09;100.00
70015;BME280;57358;51.094;6.760;2023-02-13T06:18:38;103178.69;;;4.92;100.00
70015;BME280;57358;51.094;6.760;2023-02-13T06:21:06;103162.00;;;4.73;100.00
70015;BME280;57358;51.094;6.760;2023-02-13T06:23:32;103133.94;;;4.48;100.00
70015;BME280;57358;51.094;6.760;2023-02-13T06:26:06;103171.47;;;4.68;100.00
70015;BME280;57358;51.094;6.760;2023-02-13T06:28:33;103207.16;;;4.80;100.00
70015;BME280;57358;51.094;6.760;2023-02-13T06:31:00;103165.34;;;4.63;100.00
70015;BME280;57358;51.094;6.760;2023-02-13T06:33:27;103189.75;;;4.74;100.00
70015;BME280;57358;51.094;6.760;2023-02-13T06:35:53;103069.34;;;4.10;100.00
70015;BME280;57358;51.094;6.760;2023-02-13T06:38:20;103118.25;;;4.40;100.00
70015;BME280;57358;51.094;6.760;2023-02-13T06:40:47;103115.59;;;4.37;100.00
70015;BME280;57358;51.094;6.760;2023-02-13T06:43:14;103142.66;;;4.51;100.00
70015;BME280;57358;51.094;6.760;2023-02-13T06:45:41;103186.31;;;4.78;100.00
70015;BME280;57358;51.094;6.760;2023-02-13T06:50:37;103071.13;;;4.14;100.00
70015;BME280;57358;51.094;6.760;2023-02-13T06:53:03;103181.97;;;4.79;100.00
70015;BME280;57358;51.094;6.760;2023-02-13T06:55:29;103114.69;;;4.33;100.00
70015;BME280;57358;51.094;6.760;2023-02-13T06:57:56;103168.84;;;4.68;100.00
70015;BME280;57358;51.094;6.760;2023-02-13T07:00:22;103185.47;;;4.79;100.00
70015;BME280;57358;51.094;6.760;2023-02-13T07:02:52;103107.78;;;4.35;100.00
70015;BME280;57358;51.094;6.760;2023-02-13T07:05:18;103086.81;;;4.22;100.00
70015;BME280;57358;51.094;6.760;2023-02-13T07:07:45;103170.69;;;4.77;100.00
70015;BME280;57358;51.094;6.760;2023-02-13T07:10:12;103107.75;;;4.32;100.00
70015;BME280;57358;51.094;6.760;2023-02-13T07:12:39;103146.28;;;4.66;100.00
70015;BME280;57358;51.094;6.760;2023-02-13T07:15:06;102944.59;;;3.38;100.00
70015;BME280;57358;51.094;6.760;2023-02-13T07:17:33;103183.75;;;4.80;100.00
70015;BME280;57358;51.094;6.760;2023-02-13T07:20:00;103195.06;;;4.84;100.00
70015;BME280;57358;51.094;6.760;2023-02-13T07:22:26;103113.13;;;4.48;100.00
70015;BME280;57358;51.094;6.760;2023-02-13T07:24:53;103168.19;;;4.86;100.00
70015;BME280;57358;51.094;6.760;2023-02-13T07:27:19;103178.69;;;4.92;100.00
70015;BME280;57358;51.094;6.760;2023-02-13T07:29:45;103105.28;;;4.45;100.00
70015;BME280;57358;51.094;6.760;2023-02-13T07:32:12;103044.28;;;4.16;100.00
70015;BME280;57358;51.094;6.760;2023-02-13T07:34:38;103174.41;;;4.99;100.00
70015;BME280;57358;51.094;6.760;2023-02-13T07:37:14;103039.91;;;4.09;100.00
70015;BME280;57358;51.094;6.760;2023-02-13T07:39:40;103179.78;;;5.14;100.00
70015;BME280;57358;51.094;6.760;2023-02-13T07:42:07;103183.25;;;5.12;100.00
70015;BME280;57358;51.094;6.760;2023-02-13T07:44:35;103174.59;;;5.14;100.00
70015;BME280;57358;51.094;6.760;2023-02-13T07:47:02;103068.13;;;4.55;100.00
70015;BME280;57358;51.094;6.760;2023-02-13T07:49:29;103120.53;;;4.89;100.00
70015;BME280;57358;51.094;6.760;2023-02-13T07:51:56;103179.84;;;5.17;100.00
70015;BME280;57358;51.094;6.760;2023-02-13T07:54:23;103192.19;;;5.40;100.00
70015;BME280;57358;51.094;6.760;2023-02-13T07:56:50;103189.56;;;5.38;100.00
70015;BME280;57358;51.094;6.760;2023-02-13T07:59:16;103195.78;;;5.51;100.00
70015;BME280;57358;51.094;6.760;2023-02-13T08:01:42;103138.25;;;5.27;100.00
70015;BME280;57358;51.094;6.760;2023-02-13T08:04:09;103128.66;;;5.23;100.00
70015;BME280;57358;51.094;6.760;2023-02-13T08:06:38;103151.44;;;5.44;100.00
70015;BME280;57358;51.094;6.760;2023-02-13T08:09:04;103202.03;;;5.72;100.00
70015;BME280;57358;51.094;6.760;2023-02-13T08:11:51;103146.25;;;5.48;100.00
70015;BME280;57358;51.094;6.760;2023-02-13T08:14:25;103158.59;;;5.71;100.00
70015;BME280;57358;51.094;6.760;2023-02-13T08:16:56;103201.34;;;5.94;100.00
70015;BME280;57358;51.094;6.760;2023-02-13T08:19:23;103204.06;;;6.04;100.00
70015;BME280;57358;51.094;6.760;2023-02-13T08:21:49;103201.47;;;6.11;100.00
70015;BME280;57358;51.094;6.760;2023-02-13T08:24:16;103137.75;;;5.72;100.00
70015;BME280;57358;51.094;6.760;2023-02-13T08:26:42;103204.19;;;6.22;100.00
70015;BME280;57358;51.094;6.760;2023-02-13T08:29:09;103205.06;;;6.27;100.00
70015;BME280;57358;51.094;6.760;2023-02-13T08:31:36;103206.00;;;6.38;100.00
70015;BME280;57358;51.094;6.760;2023-02-13T08:34:03;103119.72;;;5.98;100.00
70015;BME280;57358;51.094;6.760;2023-02-13T08:36:30;103207.00;;;6.57;100.00
70015;BME280;57358;51.094;6.760;2023-02-13T08:38:56;103145.06;;;6.23;100.00
70015;BME280;57358;51.094;6.760;2023-02-13T08:41:23;103211.38;;;6.69;100.00
70015;BME280;57358;51.094;6.760;2023-02-13T08:43:49;103213.13;;;6.75;100.00
70015;BME280;57358;51.094;6.760;2023-02-13T08:46:16;103220.13;;;6.85;100.00
70015;BME280;57358;51.094;6.760;2023-02-13T08:48:43;103224.53;;;6.94;100.00
70015;BME280;57358;51.094;6.760;2023-02-13T08:51:12;103234.09;;;6.95;100.00
70015;BME280;57358;51.094;6.760;2023-02-13T08:53:39;103169.63;;;6.66;100.00
70015;BME280;57358;51.094;6.760;2023-02-13T08:56:05;103230.69;;;7.13;100.00
70015;BME280;57358;51.094;6.760;2023-02-13T08:58:32;103086.84;;;6.31;100.00
70015;BME280;57358;51.094;6.760;2023-02-13T09:00:59;103215.88;;;7.13;100.00
70015;BME280;57358;51.094;6.760;2023-02-13T09:03:25;103168.81;;;6.89;100.00
70015;BME280;57358;51.094;6.760;2023-02-13T09:05:52;103037.28;;;6.25;100.00
70015;BME280;57358;51.094;6.760;2023-02-13T09:08:18;103249.91;;;7.47;100.00
70015;BME280;57358;51.094;6.760;2023-02-13T09:10:44;103256.03;;;7.52;100.00
70015;BME280;57358;51.094;6.760;2023-02-13T09:13:11;103207.22;;;7.28;100.00
70015;BME280;57358;51.094;6.760;2023-02-13T09:15:38;103238.63;;;7.68;100.00
70015;BME280;57358;51.094;6.760;2023-02-13T09:18:06;103229.06;;;7.70;100.00
70015;BME280;57358;51.094;6.760;2023-02-13T09:20:33;103159.34;;;7.38;100.00
70015;BME280;57358;51.094;6.760;2023-02-13T09:23:01;103188.97;;;7.59;100.00
70015;BME280;57358;51.094;6.760;2023-02-13T09:25:27;103229.94;;;7.86;100.00
70015;BME280;57358;51.094;6.760;2023-02-13T09:27:54;103144.53;;;7.39;100.00
70015;BME280;57358;51.094;6.760;2023-02-13T09:30:21;103122.75;;;7.23;100.00
70015;BME280;57358;51.094;6.760;2023-02-13T09:32:51;103220.34;;;8.01;100.00
70015;BME280;57358;51.094;6.760;2023-02-13T09:35:19;103174.16;;;7.75;100.00
70015;BME280;57358;51.094;6.760;2023-02-13T09:37:46;103145.41;;;7.69;100.00
70015;BME280;57358;51.094;6.760;2023-02-13T09:40:25;103164.53;;;7.89;100.00
70015;BME280;57358;51.094;6.760;2023-02-13T09:43:04;103062.69;;;7.37;99.28
70015;BME280;57358;51.094;6.760;2023-02-13T09:45:32;103156.72;;;7.92;98.87
70015;BME280;57358;51.094;6.760;2023-02-13T09:47:59;103037.44;;;7.31;98.04
70015;BME280;57358;51.094;6.760;2023-02-13T09:50:30;103231.63;;;8.44;97.91
70015;BME280;57358;51.094;6.760;2023-02-13T09:52:58;103212.38;;;8.59;97.01
70015;BME280;57358;51.094;6.760;2023-02-13T09:55:34;103197.53;;;8.61;95.99
70015;BME280;57358;51.094;6.760;2023-02-13T09:58:14;103101.75;;;8.14;93.88
70015;BME280;57358;51.094;6.760;2023-02-13T10:00:50;103183.53;;;8.73;93.30
70015;BME280;57358;51.094;6.760;2023-02-13T10:03:33;103200.03;;;8.89;92.24
70015;BME280;57358;51.094;6.760;2023-02-13T10:06:14;103186.03;;;9.01;90.76
70015;BME280;57358;51.094;6.760;2023-02-13T10:14:29;103177.06;;;9.37;88.45
70015;BME280;57358;51.094;6.760;2023-02-13T10:17:03;103152.56;;;9.41;86.88
70015;BME280;57358;51.094;6.760;2023-02-13T10:19:40;103046.34;;;8.97;85.23
70015;BME280;57358;51.094;6.760;2023-02-13T10:22:20;103135.88;;;9.50;83.71
70015;BME280;57358;51.094;6.760;2023-02-13T10:24:51;103138.41;;;9.61;82.86
70015;BME280;57358;51.094;6.760;2023-02-13T10:27:27;103075.72;;;9.36;82.18
70015;BME280;57358;51.094;6.760;2023-02-13T10:30:31;103119.97;;;9.71;81.52
70015;BME280;57358;51.094;6.760;2023-02-13T10:33:22;103114.75;;;9.67;81.66
70015;BME280;57358;51.094;6.760;2023-02-13T10:36:20;103031.16;;;9.39;82.74
70015;BME280;57358;51.094;6.760;2023-02-13T10:39:23;103080.41;;;9.94;81.61
70015;BME280;57358;51.094;6.760;2023-02-13T10:41:59;103101.88;;;10.26;78.92
70015;BME280;57358;51.094;6.760;2023-02-13T10:47:46;103103.25;;;10.59;76.86
70015;BME280;57358;51.094;6.760;2023-02-13T10:54:16;103060.72;;;10.93;75.00
70015;BME280;57358;51.094;6.760;2023-02-13T10:56:25;103036.25;;;10.91;73.25
70015;BME280;57358;51.094;6.760;2023-02-13T10:59:07;103010.97;;;10.82;72.84
70015;BME280;57358;51.094;6.760;2023-02-13T11:01:43;103019.56;;;10.92;72.50
70015;BME280;57358;51.094;6.760;2023-02-13T11:04:16;102937.94;;;10.50;71.96
70015;BME280;57358;51.094;6.760;2023-02-13T11:07:04;103003.69;;;10.98;72.17
70015;BME280;57358;51.094;6.760;2023-02-13T11:09:42;102911.72;;;10.48;72.35
70015;BME280;57358;51.094;6.760;2023-02-13T11:15:06;102965.31;;;10.91;71.92
70015;BME280;57358;51.094;6.760;2023-02-13T11:17:34;102959.50;;;11.20;71.72
70015;BME280;57358;51.094;6.760;2023-02-13T11:20:30;102964.25;;;11.48;70.24
70015;BME280;57358;51.094;6.760;2023-02-13T11:26:09;102865.78;;;11.21;69.76
70015;BME280;57358;51.094;6.760;2023-02-13T11:28:55;102902.91;;;11.47;69.94
70015;BME280;57358;51.094;6.760;2023-02-13T11:31:28;102903.19;;;11.75;68.61
70015;BME280;57358;51.094;6.760;2023-02-13T11:33:57;102850.59;;;11.75;68.05
70015;BME280;57358;51.094;6.760;2023-02-13T11:36:32;102907.31;;;12.26;67.51
70015;BME280;57358;51.094;6.760;2023-02-13T11:39:16;102854.00;;;12.18;67.01
70015;BME280;57358;51.094;6.760;2023-02-13T11:41:45;102840.44;;;12.35;65.22
70015;BME280;57358;51.094;6.760;2023-02-13T11:44:23;102804.47;;;11.98;64.67
70015;BME280;57358;51.094;6.760;2023-02-13T11:46:52;102816.63;;;12.04;65.68
70015;BME280;57358;51.094;6.760;2023-02-13T11:49:28;102825.34;;;12.06;65.82
70015;BME280;57358;51.094;6.760;2023-02-13T11:52:00;102628.22;;;10.89;65.74
70015;BME280;57358;51.094;6.760;2023-02-13T11:56:57;102759.78;;;11.96;65.68
70015;BME280;57358;51.094;6.760;2023-02-13T11:59:38;102807.22;;;12.29;66.01
70015;BME280;57358;51.094;6.760;2023-02-13T12:04:39;102772.63;;;12.43;63.90
70015;BME280;57358;51.094;6.760;2023-02-13T12:09:53;102727.13;;;12.38;63.98
70015;BME280;57358;51.094;6.760;2023-02-13T12:12:28;102549.81;;;11.44;63.67
70015;BME280;57358;51.094;6.760;2023-02-13T12:14:57;102691.75;;;12.47;62.79
70015;BME280;57358;51.094;6.760;2023-02-13T12:17:28;102716.47;;;12.74;62.88
70015;BME280;57358;51.094;6.760;2023-02-13T12:19:58;102654.03;;;12.46;62.00
70015;BME280;57358;51.094;6.760;2023-02-13T12:22:41;102696.06;;;12.81;61.85
70015;BME280;57358;51.094;6.760;2023-02-13T12:28:12;102650.31;;;12.83;61.94
70015;BME280;57358;51.094;6.760;2023-02-13T12:33:51;102667.63;;;13.48;60.51
70015;BME280;57358;51.094;6.760;2023-02-13T12:39:32;102688.38;;;13.86;59.98
70015;BME280;57358;51.094;6.760;2023-02-13T12:44:53;102622.44;;;13.84;59.35
70015;BME280;57358;51.094;6.760;2023-02-13T12:47:29;102601.63;;;13.75;58.18
70015;BME280;57358;51.094;6.760;2023-02-13T12:55:41;102592.91;;;13.98;58.58
70015;BME280;57358;51.094;6.760;2023-02-13T13:03:59;102552.00;;;14.10;57.50
70015;BME280;57358;51.094;6.760;2023-02-13T13:06:39;102500.94;;;13.87;57.63
70015;BME280;57358;51.094;6.760;2023-02-13T13:12:02;102500.72;;;13.93;57.07
70015;BME280;57358;51.094;6.760;2023-02-13T13:20:51;102491.19;;;13.89;57.25
70015;BME280;57358;51.094;6.760;2023-02-13T13:23:32;102394.06;;;13.27;57.20
70015;BME280;57358;51.094;6.760;2023-02-13T13:28:54;102470.59;;;13.75;57.73
70015;BME280;57358;51.094;6.760;2023-02-13T13:31:22;102468.38;;;13.87;57.77
70015;BME280;57358;51.094;6.760;2023-02-13T13:33:52;102464.03;;;14.09;57.54
70015;BME280;57358;51.094;6.760;2023-02-13T13:36:42;102452.25;;;14.18;56.54
70015;BME280;57358;51.094;6.760;2023-02-13T13:39:29;102440.75;;;14.19;56.96
70015;BME280;57358;51.094;6.760;2023-02-13T13:42:51;102449.91;;;14.32;56.70
70015;BME280;57358;51.094;6.760;2023-02-13T13:48:09;102375.13;;;14.10;55.22
70015;BME280;57358;51.094;6.760;2023-02-13T13:50:43;102333.69;;;13.90;55.72
70015;BME280;57358;51.094;6.760;2023-02-13T13:53:17;102395.13;;;14.38;55.33
70015;BME280;57358;51.094;6.760;2023-02-13T14:01:29;102258.38;;;13.81;55.02
70015;BME280;57358;51.094;6.760;2023-02-13T14:09:41;102337.13;;;14.34;54.95
70015;BME280;57358;51.094;6.760;2023-02-13T14:14:51;102309.72;;;14.37;54.85
70015;BME280;57358;51.094;6.760;2023-02-13T14:20:23;102152.88;;;13.59;53.97
70015;BME280;57358;51.094;6.760;2023-02-13T14:22:52;102245.59;;;13.92;54.40
70015;BME280;57358;51.094;6.760;2023-02-13T14:25:23;102250.53;;;13.80;55.26
70015;BME280;57358;51.094;6.760;2023-02-13T14:28:18;102168.75;;;13.13;55.21
70015;BME280;57358;51.094;6.760;2023-02-13T14:30:48;102282.78;;;13.86;54.82
70015;BME280;57358;51.094;6.760;2023-02-13T14:33:27;102277.41;;;13.89;54.49
70015;BME280;57358;51.094;6.760;2023-02-13T14:36:05;102246.72;;;13.65;54.73
70015;BME280;57358;51.094;6.760;2023-02-13T14:38:33;102323.72;;;13.96;55.63
70015;BME280;57358;51.094;6.760;2023-02-13T14:41:01;102245.25;;;13.57;54.67
70015;BME280;57358;51.094;6.760;2023-02-13T14:43:30;102237.03;;;13.43;55.26
70015;BME280;57358;51.094;6.760;2023-02-13T14:46:16;102305.09;;;13.79;55.42
70015;BME280;57358;51.094;6.760;2023-02-13T14:51:33;102273.78;;;13.48;55.75
70015;BME280;57358;51.094;6.760;2023-02-13T14:56:51;102268.31;;;13.52;55.42
70015;BME280;57358;51.094;6.760;2023-02-13T14:59:22;102278.00;;;13.52;55.09
70015;BME280;57358;51.094;6.760;2023-02-13T15:02:01;102293.53;;;13.60;55.27
70015;BME280;57358;51.094;6.760;2023-02-13T15:06:57;102289.78;;;13.43;55.51
70015;BME280;57358;51.094;6.760;2023-02-13T15:09:38;102170.56;;;12.66;55.55
70015;BME280;57358;51.094;6.760;2023-02-13T15:12:32;102171.41;;;12.66;55.65
70015;BME280;57358;51.094;6.760;2023-02-13T15:15:00;102253.66;;;13.22;55.39
70015;BME280;57358;51.094;6.760;2023-02-13T15:17:30;102230.88;;;12.97;55.83
70015;BME280;57358;51.094;6.760;2023-02-13T15:20:07;102281.69;;;13.24;55.59
70015;BME280;57358;51.094;6.760;2023-02-13T15:22:38;102264.81;;;13.28;55.31